• Join FlightAware (Why Join?)
  • Login
  • US Flag 
04:31AM EST


 

Airport Tracker/Info


-or-


 

Live Flight TrackerFlight Track Log ✈ N693PD ✈ 09-May-2013 ✈ KMDW - KRYY

Flight Track Log - Related Links

Times and Time Zones

All times are in EDT time to prevent confusion due to time zone crossing. See the N693PD flight status page for this flight to view local times or setup timezone preferences in your user account.

Time Position Orientation Groundspeed Altitude Reporting Facility
EDT Latitude Longitude Course Direction KTS MPH feet Rate Location/Type
04:08PM 41.7500 -87.8000 180° South 130 150 3,200  Level Chicago TRACON
04:10PM 41.6694 -87.8908 220° Southwest 177 204 5,300 1,140 Climbing Chicago Center
04:11PM 41.6261 -87.8822 172° South 169 194 6,900 1,500 Climbing Chicago Center
04:12PM 41.5817 -87.8722 170° South 163 188 8,400 1,320 Climbing Chicago Center
04:13PM 41.4430 -87.7667 180° South  Level FlightAware Approximate
04:13PM 41.5369 -87.8600 168° South 163 188 9,700  Level Chicago Center
04:15PM 41.4867 -87.8475 169° South 172 198 10,000 120 Climbing Chicago Center
04:16PM 41.4142 -87.8289 169° South 215 247 10,000  Level Chicago Center
04:17PM 41.3517 -87.8122 169° South 225 259 10,000 420 Level Chicago Center
04:18PM 41.2894 -87.7956 169° South 228 262 10,900 1,020 Climbing Chicago Center
04:19PM 41.2442 -87.7650 153° Southeast 210 242 12,200 1,140 Climbing Chicago Center
04:20PM 41.1992 -87.7258 147° Southeast 196 226 13,300 1,020 Climbing Chicago Center
04:21PM 41.1461 -87.7069 165° South 196 226 14,400 960 Climbing Chicago Center
04:22PM 41.0836 -87.6786 161° South 199 229 15,400 960 Climbing Chicago Center
04:23PM 41.0311 -87.6544 161° South 201 231 16,500 900 Climbing Chicago Center
04:24PM 40.9783 -87.6311 162° South 200 230 17,300 780 Climbing Chicago Center
04:25PM 40.9222 -87.6044 160° South 208 239 18,200 900 Climbing Chicago Center
04:26PM 40.8675 -87.5803 162° South 209 241 19,200 960 Climbing Chicago Center
04:27PM 40.8028 -87.5517 161° South 207 238 20,300 840 Climbing Chicago Center
04:28PM 40.7483 -87.5275 161° South 207 238 21,000 480 Climbing Chicago Center
04:29PM 40.6911 -87.5008 161° South 215 247 21,400 900 Climbing Chicago Center
04:30PM 40.6403 -87.4786 162° South 202 232 22,900 720 Climbing Chicago Center
04:31PM 40.5903 -87.4575 162° South 188 216 23,000  Climbing Chicago Center
04:32PM 40.5200 -87.4239 160° South 211 243 23,000  Level Chicago Center
04:33PM 40.4578 -87.3961 161° South 226 260 23,000  Level Chicago Center
04:34PM 40.3922 -87.3675 162° South 238 274 23,000  Level Chicago Center
04:35PM 40.3267 -87.3406 163° South 244 281 23,000  Level Chicago Center
04:36PM 40.2622 -87.3125 162° South 246 283 23,000  Level Chicago Center
04:37PM 40.1992 -87.2861 162° South 241 277 23,000  Level Chicago Center
04:38PM 40.1275 -87.2542 161° South 231 266 23,000  Level Chicago Center
04:39PM 40.0667 -87.2536 180° South 220 253 23,000  Level Chicago Center
04:40PM 40.0061 -87.2511 178° South 215 247 23,000  Level Indianapolis Center
04:41PM 39.9472 -87.2519 181° South 212 244 23,000  Level Indianapolis Center
04:43PM 39.8761 -87.2525 180° South 213 245 23,000  Level Indianapolis Center
04:44PM 39.8169 -87.2517 179° South 213 245 23,000  Level Indianapolis Center
04:45PM 39.7569 -87.2364 169° South 222 255 23,000  Level Indianapolis Center
04:46PM 39.6978 -87.2008 155° Southeast 236 272 23,000  Level Indianapolis Center
04:47PM 39.6378 -87.1733 161° South 232 267 23,000  Level Indianapolis Center
04:48PM 39.5636 -87.1386 160° South 236 272 23,000  Level Indianapolis Center
04:49PM 39.4992 -87.1094 161° South 245 282 23,000  Level Indianapolis Center
04:50PM 39.4347 -87.0781 159° South 248 285 23,000  Level Indianapolis Center
04:51PM 39.3686 -87.0489 161° South 251 289 23,000  Level Indianapolis Center
04:52PM 39.3019 -87.0186 161° South 253 291 23,000  Level Indianapolis Center
04:53PM 39.2350 -86.9881 161° South 256 295 23,000  Level Indianapolis Center
04:54PM 39.1553 -86.9508 160° South 256 295 23,000  Level Indianapolis Center
04:55PM 39.0908 -86.9222 161° South 258 297 23,000  Level Indianapolis Center
04:56PM 39.0228 -86.8911 160° South 260 299 23,000  Level Indianapolis Center
04:57PM 38.9531 -86.8600 161° South 262 302 23,000  Level Indianapolis Center
04:58PM 38.8686 -86.8222 161° South 266 306 23,000  Level Indianapolis Center
04:59PM 38.7994 -86.7892 160° South 265 305 23,000  Level Indianapolis Center
05:00PM 38.7300 -86.7581 161° South 262 302 23,000  Level Indianapolis Center
05:01PM 38.6606 -86.7272 161° South 262 302 23,000  Level Indianapolis Center
05:02PM 38.5908 -86.6969 161° South 262 302 23,000  Level Indianapolis Center
05:03PM 38.5206 -86.6642 160° South 265 305 23,000  Level Indianapolis Center
05:04PM 38.4503 -86.6342 162° South 263 303 23,000  Level Indianapolis Center
05:05PM 38.3808 -86.6031 161° South 262 302 23,000  Level Indianapolis Center
05:06PM 38.3108 -86.5711 160° South 264 304 23,000  Level Indianapolis Center
05:07PM 38.2269 -86.5353 161° South 262 302 23,000  Level Indianapolis Center
05:08PM 38.1575 -86.5039 160° South 263 303 23,000  Level Indianapolis Center
05:09PM 38.0875 -86.4719 160° South 264 304 23,000  Level Indianapolis Center
05:10PM 38.0172 -86.4417 161° South 265 305 23,000  Level Indianapolis Center
05:11PM 37.9472 -86.4114 161° South 264 304 23,000  Level Indianapolis Center
05:13PM 37.8756 -86.3803 161° South 268 308 23,000  Level Indianapolis Center
05:14PM 37.8000 -86.3481 161° South 267 307 23,000  Level Indianapolis Center
05:15PM 37.7292 -86.3164 161° South 267 307 23,000  Level Indianapolis Center
05:16PM 37.6575 -86.2858 161° South 268 308 23,000  Level Indianapolis Center
05:17PM 37.5869 -86.2547 161° South 266 306 23,000  Level Indianapolis Center
05:18PM 37.5036 -86.2189 161° South 269 310 23,000  Level Indianapolis Center
05:18PM 37.4558 -86.2006 163° South 269 310 23,000  Level Memphis Center
05:19PM 37.3839 -86.1678 160° South 269 310 23,000  Level Memphis Center
05:20PM 37.3592 -86.1564 160° South 273 314 23,000  Level Indianapolis Center
05:20PM 37.3122 -86.1375 162° South 269 310 23,000  Level Memphis Center
05:21PM 37.2339 -86.1000 159° South 269 310 23,000  Level Memphis Center
05:22PM 37.2156 -86.0953 168° South 269 310 23,000  Level Indianapolis Center
05:23PM 37.1433 -86.0633 161° South 271 312 23,000  Level Indianapolis Center
05:23PM 37.0944 -86.0425 161° South 269 310 23,000  Level Memphis Center
05:24PM 37.0225 -86.0125 162° South 274 315 23,000  Level Memphis Center
05:25PM 36.9506 -85.9803 160° South 274 315 23,000  Level Memphis Center
05:26PM 36.8806 -85.9503 161° South 274 315 23,000  Level Memphis Center
05:27PM 36.8067 -85.9206 162° South 274 315 23,000  Level Memphis Center
05:28PM 36.7367 -85.8883 160° South 274 315 23,000  Level Memphis Center
05:29PM 36.6711 -85.8608 161° South 274 315 23,000  Level Memphis Center
05:30PM 36.5972 -85.8314 162° South 274 315 23,000  Level Memphis Center
05:31PM 36.5250 -85.7992 160° South 274 315 23,000  Level Memphis Center
05:32PM 36.4531 -85.7725 163° South 274 315 23,000  Level Memphis Center
05:33PM 36.3792 -85.7406 161° South 274 315 23,000  Level Memphis Center
05:34PM 36.3092 -85.7108 161° South 274 315 23,000  Level Memphis Center
05:35PM 36.2372 -85.6792 160° South 274 315 23,000  Level Memphis Center
05:36PM 36.1650 -85.6497 162° South 274 315 23,000  Level Memphis Center
05:37PM 36.0908 -85.6181 161° South 274 315 23,000  Level Memphis Center
05:38PM 36.0189 -85.5864 160° South 274 315 23,000  Level Memphis Center
05:39PM 35.9469 -85.5597 163° South 274 315 23,000  Level Memphis Center
05:40PM 35.8728 -85.5283 161° South 274 315 23,000  Level Memphis Center
05:41PM 35.8006 -85.4992 162° South 274 315 23,000  Level Memphis Center
05:42PM 35.7264 -85.4678 161° South 274 315 23,000  Level Memphis Center
05:43PM 35.6522 -85.4389 162° South 274 315 23,000  Level Memphis Center
05:45PM 35.5211 -85.3836 161° South 274 315 23,000  Level Atlanta Center
05:46PM 35.4483 -85.3542 162° South 274 315 23,000  Level Atlanta Center
05:47PM 35.3736 -85.3225 161° South 274 315 23,000  Level Atlanta Center
05:48PM 35.3031 -85.2933 161° South 279 321 23,000 -120 Level Atlanta Center
05:49PM 35.2261 -85.2642 163° South 284 327 22,800 -600 Descending Atlanta Center
05:50PM 35.1492 -85.2300 160° South 289 333 21,900 -960 Descending Atlanta Center
05:51PM 35.0722 -85.2011 163° South 289 333 20,900 -960 Descending Atlanta Center
05:52PM 34.9953 -85.1694 161° South 289 333 20,000 -960 Descending Atlanta Center
05:53PM 34.9119 -85.1533 171° South 294 338 19,000 -1,020 Descending Atlanta Center
05:54PM 34.8306 -85.1497 178° South 294 338 18,000 -1,020 Descending Atlanta Center
05:55PM 34.7536 -85.1461 178° South 289 333 17,000 -1,020 Descending Atlanta Center
05:56PM 34.6722 -85.1425 178° South 289 333 16,000 -1,140 Descending Atlanta Center
05:57PM 34.5825 -85.1389 178° South 294 338 14,800 -1,500 Descending Atlanta Center
05:58PM 34.5078 -85.1000 157° South 286 329 13,100 -1,860 Descending Atlanta Center
05:59PM 34.4392 -85.0489 148° Southeast 291 335 11,100 -1,980 Descending Atlanta Center
06:00PM 34.3708 -84.9975 148° Southeast 291 335 9,200 -1,560 Descending Atlanta Center
06:01PM 34.3086 -84.9467 146° Southeast 280 322 8,000 -660 Descending Atlanta Center
06:02PM 34.2461 -84.9033 150° Southeast 269 310 7,900 -60 Descending Atlanta Center
06:03PM 34.1881 -84.8550 145° Southeast 264 304 7,900 -600 Level Atlanta Center
06:04PM 34.1406 -84.8017 137° Southeast 264 304 6,800 -1,320 Descending Atlanta Center
06:05PM 34.0992 -84.7361 127° Southeast 253 291 5,300 -1,500 Descending Atlanta Center
06:06PM 34.0597 -84.6706 126° Southeast 247 284 3,900 -1,200 Descending Atlanta Center
06:07PM 34.0558 -84.6006 94° East 214 246 2,900 -900 Descending Atlanta Center
06:08PM 34.0478 -84.5578 103° East 154 177 2,200 -720 Descending Atlanta Center
06:09PM 34.0164 -84.5625 187° South 94 108 1,500 -420 Descending Atlanta Center
06:10PM 33.9956 -84.5625 180° South 94 108 1,400 -120 Descending Atlanta Center
06:12PM 34.0000 -84.5833 North  Level FlightAware Approximate
06:19PM 34.0132 -84.5971 North  Level Estimated
06:20PM 34.0132 -84.5971 North  Level Estimated
06:21PM 34.0132 -84.5971 North  Level Estimated
06:22PM 34.0132 -84.5971 North  Level Estimated
06:23PM 34.0132 -84.5971 North  Level Estimated
06:24PM 34.0132 -84.5971 North  Level Estimated
06:25PM 34.0132 -84.5971 North  Level Estimated
06:26PM 34.0132 -84.5971 North  Level Estimated
06:27PM 34.0132 -84.5971 North  Level Estimated
06:28PM 34.0132 -84.5971 North  Level Estimated
06:29PM 34.0132 -84.5971 North  Level Estimated
06:30PM 34.0132 -84.5971 North  Level Estimated
06:31PM 34.0132 -84.5971 North  Level Estimated
06:32PM 34.0132 -84.5971 North  Level Estimated
06:33PM 34.0132 -84.5971 North  Level Estimated
06:34PM 34.0132 -84.5971 North  Level Estimated
06:35PM 34.0132 -84.5971 North  Level Estimated
06:36PM 34.0132 -84.5971 North  Level Estimated
06:37PM 34.0132 -84.5971 North  Level Estimated
06:38PM 34.0132 -84.5971 North  Level Estimated
06:39PM 34.0132 -84.5971 North  Level Estimated
06:40PM 34.0132 -84.5971 North  Level Estimated